Terminal Aerodrome Forecast
Issued by NWS

Home | Current Version | Previous Version | Text Only | Print | Product List | Glossary On
Versions: 1 2 3 4 5 6 7 8 9 10 11 12 13 14 15
000
FTUS44 KTSA 232320
TAFFYV
TAF
KFYV 232320Z 2400/2424 32006KT P6SM VCSH OVC090
     FM240200 31005KT P6SM BKN050
      TEMPO 2407/2411 BKN025
     FM241100 28004KT P6SM BKN025
      TEMPO 2411/2414 BKN015
     FM241600 32012G18KT P6SM BKN025
     FM241800 33012G20KT P6SM SCT035=

USA.gov is the U.S. government's official web portal to all federal, state and local government web resources and services.